Airfield :
LOGIN :

Register | Disclaimer

   EN    FR    IT 

 










Legend :    VFR   Marginal VFR   IFR   Intensive IFR   Very Intensive IFR
Visi :
Ceiling :
>= 8 km
>= 3000ft
5 to 8 km
1000 to 3000 ft
1500m to 5 km
500 to 1000 ft
800 to 1500m
200 to 500 ft
< 800m
< 200 ft
Symbols :   Thunderstorms  Fog  Heavy snow  Heavy precipitations  Wind > 20 kt
SIGMETs :     Misc.  Thunderstorms  Icing  Turbulence  Mountain Waves  Volcanic Ashes






- Airport Elevation : 23 ft
- IATA code : XFW


EDHI - Hamburg Finkenwerder

CURRENT METAR :
  • 202320Z AUTO 29020G32KT 6000 1900 // SCT011/// BKN013/// OVC030/// 05/03 Q1006

EXPIRED METARs :
  • 202250Z AUTO 28018KT 9999 1800 // FEW016/// BKN020/// OVC063/// 06/04 Q1005
  • 202220Z AUTO 28017KT 9999 1600 // FEW014/// BKN017/// OVC022/// 06/04 Q1005
  • 202150Z AUTO 28024KT 9999 1500 // FEW011/// BKN014/// OVC021/// 06/04 Q1004
  • 202120Z AUTO 22017KT 8000 2000 // FEW015/// BKN018/// OVC026/// 07/06 Q1002
  • 202050Z AUTO 21018G29KT 180V240 9999 2800 // FEW015/// BKN018/// OVC024/// 08/06 Q1002

Expired Forecast.



MET'MAP, your aeronautical weather chart ! - Copyright ORBIFLY December 2007 - Disclaimer

ORBIFLY MET'MAP TEAM :

Programming & Development : Alexandra Zaïnal
Concept & original design : Baudouin d'Aumeries
Assistance for programming : Marc-Olivier Méhu
Technical & hardware support : Manuel Goepfert

Contact : metmap@orbifly.com




SOURCES & CREDITS :

   NOAA